Terminal Aerodrome Forecast
Issued by NWS

Home | Current Version | Previous Version | Text Only | Print | Product List | Glossary On
Versions: 1 2 3 4 5 6 7 8 9 10 11 12 13 14 15 16
000
FTUS43 KPAH 260826 AAA
TAFCGI
TAF AMD
KCGI 260826Z 2608/2706 36008G18KT P6SM VCSH OVC030
     FM261100 36008KT P6SM VCSH BKN035
     FM261600 36006KT P6SM FEW040
     FM270000 34004KT P6SM SKC=

USA.gov is the U.S. government's official web portal to all federal, state and local government web resources and services.